createdAt,value
2018-09-28T00:02:10.381Z,4.30
2018-09-28T00:04:38.641Z,4.53
2018-09-28T00:07:06.912Z,4.10
2018-09-28T00:09:35.210Z,3.90
2018-09-28T00:12:03.459Z,4.23
2018-09-28T00:14:31.737Z,4.43
2018-09-28T00:17:00.045Z,4.40
2018-09-28T00:19:28.370Z,4.27
2018-09-28T00:21:56.690Z,4.37
2018-09-28T00:24:24.954Z,4.10
2018-09-28T00:26:53.228Z,3.90
2018-09-28T00:29:21.507Z,4.30
2018-09-28T00:31:49.798Z,4.00
2018-09-28T00:34:18.060Z,4.00
2018-09-28T00:36:46.334Z,3.97
2018-09-28T00:39:14.610Z,3.97
2018-09-28T00:41:42.882Z,3.90
2018-09-28T00:44:12.160Z,3.83
2018-09-28T00:46:40.416Z,4.50
2018-09-28T00:49:08.894Z,4.07
2018-09-28T00:51:37.214Z,3.90
2018-09-28T00:54:05.494Z,3.80
2018-09-28T00:56:33.778Z,4.30
2018-09-28T00:59:02.027Z,4.33
2018-09-28T01:01:30.318Z,3.90
2018-09-28T01:03:58.610Z,4.00
2018-09-28T01:06:27.102Z,4.03
2018-09-28T01:08:55.380Z,4.03
2018-09-28T01:11:23.700Z,4.30
2018-09-28T01:13:52.006Z,3.93
2018-09-28T01:16:20.279Z,3.80
2018-09-28T01:18:48.546Z,3.60
2018-09-28T01:21:16.804Z,4.23
2018-09-28T01:23:45.097Z,3.80
2018-09-28T01:26:13.349Z,3.90
2018-09-28T01:28:41.604Z,4.27
2018-09-28T01:31:09.890Z,4.30
2018-09-28T01:33:38.169Z,4.17
2018-09-28T01:36:06.450Z,4.30
2018-09-28T01:38:34.723Z,3.97
2018-09-28T01:41:03.043Z,3.97
2018-09-28T01:43:32.055Z,3.60
2018-09-28T01:46:00.448Z,4.00
2018-09-28T01:48:28.733Z,3.77
2018-09-28T01:50:57.083Z,3.80
2018-09-28T01:53:26.157Z,3.80
2018-09-28T01:55:54.423Z,3.90
2018-09-28T01:58:22.707Z,3.97
2018-09-28T02:00:51.244Z,3.90
2018-09-28T02:03:19.517Z,3.60
2018-09-28T02:05:47.779Z,3.60
2018-09-28T02:08:16.075Z,4.00
2018-09-28T02:10:44.400Z,3.10
2018-09-28T02:13:12.644Z,3.87
2018-09-28T02:15:40.937Z,3.70
2018-09-28T02:18:09.211Z,4.00
2018-09-28T02:20:37.576Z,3.83
2018-09-28T02:23:05.906Z,4.00
2018-09-28T02:25:34.166Z,4.07
2018-09-28T02:28:02.438Z,4.00
2018-09-28T02:30:30.747Z,3.70
2018-09-28T02:32:59.030Z,4.10
2018-09-28T02:35:27.323Z,4.30
2018-09-28T02:37:55.578Z,4.30
2018-09-28T02:40:23.939Z,3.90
2018-09-28T02:42:52.241Z,3.90
2018-09-28T02:45:20.519Z,3.97
2018-09-28T02:47:48.820Z,3.97
2018-09-28T02:50:17.132Z,4.00
2018-09-28T02:52:45.442Z,3.90
2018-09-28T02:55:13.721Z,4.03
2018-09-28T02:57:41.995Z,3.20
2018-09-28T03:00:10.269Z,3.87
2018-09-28T03:02:38.565Z,4.30
2018-09-28T03:05:06.903Z,3.93
2018-09-28T03:07:35.180Z,3.70
2018-09-28T03:10:03.458Z,3.90
2018-09-28T03:12:31.732Z,3.80
2018-09-28T03:15:00.009Z,3.93
2018-09-28T03:17:28.309Z,3.90
2018-09-28T03:19:56.617Z,4.10
2018-09-28T03:22:24.883Z,4.13
2018-09-28T03:24:53.165Z,3.70
2018-09-28T03:27:21.443Z,3.97
2018-09-28T03:29:49.710Z,3.67
2018-09-28T03:32:18.011Z,4.03
2018-09-28T03:34:46.284Z,3.97
2018-09-28T03:37:14.549Z,4.17
2018-09-28T03:39:42.843Z,3.97
2018-09-28T03:42:11.165Z,3.43
2018-09-28T03:44:39.422Z,3.57
2018-09-28T03:47:07.717Z,3.80
2018-09-28T03:49:35.993Z,4.13
2018-09-28T03:52:04.269Z,4.00
2018-09-28T03:54:32.557Z,4.20
2018-09-28T03:57:00.827Z,3.60
2018-09-28T03:59:29.153Z,4.17
2018-09-28T04:01:57.433Z,3.77
2018-09-28T04:04:25.729Z,3.83
2018-09-28T04:06:54.021Z,3.97
2018-09-28T04:09:22.285Z,3.97
2018-09-28T04:11:50.561Z,3.60
2018-09-28T04:14:18.885Z,3.20
2018-09-28T04:16:47.171Z,3.80
2018-09-28T04:19:15.453Z,3.93
2018-09-28T04:21:48.173Z,3.90
2018-09-28T04:24:16.449Z,4.23
2018-09-28T04:26:44.749Z,3.77
2018-09-28T04:29:13.033Z,4.47
2018-09-28T04:31:41.317Z,3.90
2018-09-28T04:34:09.595Z,3.90
2018-09-28T04:36:37.871Z,3.97
2018-09-28T04:39:06.801Z,4.07
2018-09-28T04:41:35.077Z,3.53
2018-09-28T04:44:03.345Z,3.77
2018-09-28T04:46:31.645Z,3.90
2018-09-28T04:48:59.933Z,3.97
2018-09-28T04:51:28.269Z,3.63
2018-09-28T04:53:56.529Z,3.70
2018-09-28T04:56:24.839Z,3.67
2018-09-28T04:58:53.101Z,4.03
2018-09-28T05:01:21.369Z,4.20
2018-09-28T05:03:49.682Z,3.73
2018-09-28T05:06:17.995Z,4.10
2018-09-28T05:08:46.302Z,4.07
2018-09-28T05:11:14.774Z,3.73
2018-09-28T05:13:43.058Z,3.80
2018-09-28T05:16:11.373Z,4.17
2018-09-28T05:18:39.677Z,3.60
2018-09-28T05:21:08.249Z,3.67
2018-09-28T05:23:36.820Z,3.60
2018-09-28T05:26:05.116Z,4.00
2018-09-28T05:28:33.414Z,3.87
2018-09-28T05:31:01.725Z,3.87
2018-09-28T05:33:29.988Z,4.37
2018-09-28T05:35:58.422Z,3.80
2018-09-28T05:38:28.912Z,12.97
2018-09-28T05:40:57.251Z,53.07
2018-09-28T05:43:25.584Z,14.13
2018-09-28T05:45:53.874Z,12.87
2018-09-28T05:48:22.139Z,10.67
2018-09-28T05:50:50.427Z,4.27
2018-09-28T05:53:18.745Z,5.47
2018-09-28T05:55:49.600Z,11.70
2018-09-28T05:58:23.357Z,9.20
2018-09-28T06:00:56.909Z,10.30
2018-09-28T06:03:25.251Z,8.53
2018-09-28T06:05:57.609Z,7.27
2018-09-28T06:08:25.913Z,8.83
2018-09-28T06:10:54.254Z,9.73
2018-09-28T06:13:22.680Z,13.77
2018-09-28T06:15:51.378Z,8.57
2018-09-28T06:18:19.789Z,7.53
2018-09-28T06:20:48.453Z,9.03
2018-09-28T06:23:17.025Z,9.33
2018-09-28T06:25:45.360Z,5.80
2018-09-28T06:28:13.934Z,7.73
2018-09-28T06:30:42.455Z,9.00
2018-09-28T06:33:10.943Z,5.33
2018-09-28T06:35:39.517Z,6.00
2018-09-28T06:38:07.784Z,5.80
2018-09-28T06:40:36.070Z,5.57
2018-09-28T06:43:04.366Z,5.00
2018-09-28T06:45:32.891Z,4.60
2018-09-28T06:48:02.297Z,9.80
2018-09-28T06:50:30.763Z,4.53
2018-09-28T06:52:59.063Z,5.53
2018-09-28T06:55:27.590Z,4.17
2018-09-28T06:57:56.163Z,7.17
2018-09-28T07:00:24.567Z,7.37
2018-09-28T07:02:54.033Z,4.60
2018-09-28T07:05:22.469Z,8.77
2018-09-28T07:07:51.034Z,10.33
2018-09-28T07:10:19.563Z,21.87
2018-09-28T07:12:48.129Z,17.13
2018-09-28T07:15:16.599Z,14.00
2018-09-28T07:17:45.240Z,10.97
2018-09-28T07:20:13.539Z,11.50
2018-09-28T07:22:41.844Z,8.90
2018-09-28T07:25:10.228Z,4.77
2018-09-28T07:27:38.464Z,6.27
2018-09-28T07:30:06.885Z,12.70
2018-09-28T07:32:35.257Z,10.63
2018-09-28T07:35:03.525Z,7.87
2018-09-28T07:37:31.805Z,11.90
2018-09-28T07:40:00.067Z,12.67
2018-09-28T07:42:28.342Z,10.43
2018-09-28T07:44:56.661Z,5.90
2018-09-28T07:47:24.964Z,6.67
2018-09-28T07:49:53.221Z,9.50
2018-09-28T07:52:21.503Z,13.30
2018-09-28T07:54:49.773Z,5.77
2018-09-28T07:57:18.053Z,5.93
2018-09-28T07:59:46.366Z,7.67
2018-09-28T08:02:14.645Z,8.37
2018-09-28T08:04:42.933Z,6.80
2018-09-28T08:07:11.200Z,3.97
2018-09-28T08:09:39.457Z,7.73
2018-09-28T08:12:07.740Z,9.27
2018-09-28T08:14:36.021Z,7.60
2018-09-28T08:17:04.381Z,5.87
2018-09-28T08:19:32.687Z,3.40
2018-09-28T08:22:00.971Z,6.37
2018-09-28T08:24:29.260Z,3.73
2018-09-28T08:26:57.521Z,5.00
2018-09-28T08:29:25.783Z,3.60
2018-09-28T08:31:54.665Z,3.60
2018-09-28T08:34:22.961Z,3.73
2018-09-28T08:36:51.291Z,3.30
2018-09-28T08:39:19.510Z,4.93
2018-09-28T08:41:47.838Z,3.87
2018-09-28T08:44:16.093Z,3.17
2018-09-28T08:46:44.377Z,3.57
2018-09-28T08:49:12.745Z,3.17
2018-09-28T08:51:40.999Z,2.93
2018-09-28T08:54:09.313Z,3.13
2018-09-28T08:56:37.601Z,3.10
2018-09-28T08:59:05.875Z,3.00
2018-09-28T09:01:34.179Z,3.27
2018-09-28T09:04:02.504Z,4.57
2018-09-28T09:06:30.781Z,3.10
2018-09-28T09:08:59.069Z,3.20
2018-09-28T09:11:27.345Z,4.10
2018-09-28T09:13:55.640Z,2.93
2018-09-28T09:16:24.366Z,3.10
2018-09-28T09:18:52.654Z,2.80
2018-09-28T09:21:20.939Z,3.23
2018-09-28T09:23:49.215Z,3.07
2018-09-28T09:26:17.475Z,3.10
2018-09-28T09:28:45.745Z,2.90
2018-09-28T09:31:14.025Z,3.03
2018-09-28T09:33:42.301Z,3.10
2018-09-28T09:36:10.585Z,3.00
2018-09-28T09:38:38.856Z,2.87
2018-09-28T09:41:07.233Z,2.90
2018-09-28T09:43:35.528Z,2.70
2018-09-28T09:46:05.079Z,2.70
2018-09-28T09:48:33.411Z,5.53
2018-09-28T09:51:01.680Z,3.43
2018-09-28T09:53:29.975Z,3.07
2018-09-28T09:56:00.045Z,8.67
2018-09-28T09:58:28.299Z,4.77
2018-09-28T10:01:01.878Z,2.40
2018-09-28T10:03:35.468Z,3.73
2018-09-28T10:06:03.815Z,4.50
2018-09-28T10:08:32.079Z,5.77
2018-09-28T10:11:00.341Z,8.33
2018-09-28T10:13:28.638Z,7.10
2018-09-28T10:15:56.985Z,5.57
2018-09-28T10:18:25.261Z,7.53
2018-09-28T10:20:54.387Z,3.57
2018-09-28T10:23:22.673Z,7.67
2018-09-28T10:25:50.965Z,31.90
2018-09-28T10:28:19.389Z,69.17
2018-09-28T10:30:47.528Z,15.83
2018-09-28T10:33:16.051Z,38.23
2018-09-28T10:35:44.342Z,33.80
2018-09-28T10:38:12.667Z,31.07
2018-09-28T10:40:41.075Z,30.07
2018-09-28T10:43:09.255Z,30.50
2018-09-28T10:45:37.744Z,24.80
2018-09-28T10:48:06.268Z,18.90
2018-09-28T10:50:35.471Z,17.37
2018-09-28T10:53:03.816Z,16.80
2018-09-28T10:55:32.072Z,12.33
2018-09-28T10:58:00.388Z,12.50
2018-09-28T11:00:28.757Z,15.10
2018-09-28T11:02:56.977Z,9.57
2018-09-28T11:05:25.308Z,10.43
2018-09-28T11:07:53.595Z,7.00
2018-09-28T11:10:21.977Z,6.57
2018-09-28T11:12:51.368Z,5.90
2018-09-28T11:15:19.717Z,8.10
2018-09-28T11:17:47.922Z,3.73
2018-09-28T11:20:16.216Z,5.93
2018-09-28T11:22:45.434Z,3.97
2018-09-28T11:25:13.711Z,5.83
2018-09-28T11:27:42.079Z,6.43
2018-09-28T11:30:10.303Z,4.10
2018-09-28T11:32:38.615Z,5.67
2018-09-28T11:35:06.922Z,6.57
2018-09-28T11:37:35.226Z,3.43
2018-09-28T11:40:04.122Z,5.33
2018-09-28T11:42:32.405Z,8.90
2018-09-28T11:45:00.694Z,8.83
2018-09-28T11:47:28.998Z,9.30
2018-09-28T11:49:57.292Z,14.40
2018-09-28T11:52:26.398Z,4.70
2018-09-28T11:54:54.662Z,6.93
2018-09-28T11:57:23.017Z,14.73
2018-09-28T11:59:51.285Z,21.90
2018-09-28T12:02:19.554Z,20.83
2018-09-28T12:04:47.836Z,18.97
2018-09-28T12:07:16.249Z,11.40
2018-09-28T12:09:44.526Z,13.77
2018-09-28T12:12:13.172Z,15.17
2018-09-28T12:14:41.434Z,17.43
2018-09-28T12:17:09.757Z,15.57
2018-09-28T12:19:38.059Z,10.90
2018-09-28T12:22:06.506Z,12.20
2018-09-28T12:24:34.797Z,11.27
2018-09-28T12:27:03.082Z,10.93
2018-09-28T12:29:31.355Z,6.53
2018-09-28T12:31:59.870Z,14.77
2018-09-28T12:34:28.170Z,7.90
2018-09-28T12:36:56.473Z,4.27
2018-09-28T12:39:24.803Z,9.67
2018-09-28T12:41:53.052Z,7.10
2018-09-28T12:44:21.375Z,6.73
2018-09-28T12:46:49.846Z,8.37
2018-09-28T12:49:18.144Z,5.63
2018-09-28T12:51:46.420Z,6.23
2018-09-28T12:54:14.772Z,6.60
2018-09-28T12:56:43.047Z,5.20
2018-09-28T12:59:11.576Z,3.50
2018-09-28T13:01:39.872Z,5.37
2018-09-28T13:04:12.372Z,4.57
2018-09-28T13:06:40.732Z,3.17
2018-09-28T13:09:08.959Z,3.87
2018-09-28T13:11:37.251Z,5.13
2018-09-28T13:14:05.535Z,8.20
2018-09-28T13:16:33.904Z,3.80
2018-09-28T13:19:02.194Z,5.37
2018-09-28T13:21:30.472Z,5.57
2018-09-28T13:23:58.749Z,3.77
2018-09-28T13:26:27.135Z,4.07
2018-09-28T13:28:55.372Z,3.13
2018-09-28T13:31:23.941Z,5.37
2018-09-28T13:33:52.240Z,5.93
2018-09-28T13:36:20.534Z,7.97
2018-09-28T13:38:48.815Z,3.50
2018-09-28T13:41:17.052Z,2.83
2018-09-28T13:43:45.339Z,6.53
2018-09-28T13:46:13.697Z,3.10
2018-09-28T13:48:42.046Z,3.13
2018-09-28T13:51:10.296Z,3.07
2018-09-28T13:53:39.493Z,2.90
2018-09-28T13:56:07.768Z,2.73
2018-09-28T13:58:36.122Z,3.00
2018-09-28T14:01:04.340Z,2.57
2018-09-28T14:03:32.628Z,2.60
2018-09-28T14:06:00.897Z,3.00
2018-09-28T14:08:29.166Z,2.83
2018-09-28T14:10:57.457Z,2.93
2018-09-28T14:13:25.766Z,2.47
2018-09-28T14:15:55.253Z,2.27
2018-09-28T14:18:23.609Z,2.70
2018-09-28T14:20:51.805Z,2.60
2018-09-28T14:23:20.135Z,2.63
2018-09-28T14:25:48.591Z,2.37
2018-09-28T14:28:17.954Z,2.33
2018-09-28T14:30:46.269Z,2.40
2018-09-28T14:33:15.508Z,3.37
2018-09-28T14:35:43.802Z,2.40
2018-09-28T14:38:12.242Z,2.30
2018-09-28T14:40:40.558Z,2.43
2018-09-28T14:43:08.888Z,2.53
2018-09-28T14:45:37.188Z,2.33
2018-09-28T14:48:05.503Z,2.50
2018-09-28T14:50:33.748Z,2.23
2018-09-28T14:53:02.056Z,2.53
2018-09-28T14:55:30.352Z,2.53
2018-09-28T14:57:58.732Z,2.23
2018-09-28T15:00:27.070Z,2.20
2018-09-28T15:02:55.329Z,1.83
2018-09-28T15:05:23.632Z,1.90
2018-09-28T15:07:51.938Z,2.10
2018-09-28T15:10:20.301Z,2.00
2018-09-28T15:12:48.699Z,2.37
2018-09-28T15:15:17.029Z,2.10
2018-09-28T15:17:45.273Z,2.17
2018-09-28T15:20:13.597Z,1.80
2018-09-28T15:22:41.900Z,2.53
2018-09-28T15:25:10.197Z,2.27
2018-09-28T15:27:38.469Z,2.00
2018-09-28T15:30:07.154Z,2.20
2018-09-28T15:32:35.700Z,2.20
2018-09-28T15:35:04.130Z,2.57
2018-09-28T15:37:32.420Z,2.20
2018-09-28T15:40:00.695Z,2.37
2018-09-28T15:42:28.967Z,2.13
2018-09-28T15:44:57.255Z,2.77
2018-09-28T15:47:25.544Z,2.20
2018-09-28T15:49:53.833Z,2.10
2018-09-28T15:52:22.157Z,2.17
2018-09-28T15:54:50.429Z,2.50
2018-09-28T15:57:18.734Z,2.20
2018-09-28T15:59:47.031Z,2.10
2018-09-28T16:02:15.317Z,2.10
2018-09-28T16:04:43.907Z,2.40
2018-09-28T16:07:12.232Z,2.20
2018-09-28T16:09:40.528Z,2.60
2018-09-28T16:12:09.088Z,2.53
2018-09-28T16:14:37.376Z,2.70
2018-09-28T16:17:05.683Z,2.90
2018-09-28T16:19:33.981Z,2.80
2018-09-28T16:22:02.290Z,3.00
2018-09-28T16:24:30.573Z,2.87
2018-09-28T16:26:58.872Z,3.10
2018-09-28T16:29:27.193Z,3.10
2018-09-28T16:31:55.513Z,3.10
2018-09-28T16:34:23.823Z,2.90
2018-09-28T16:36:53.496Z,2.97
2018-09-28T16:39:21.799Z,3.70
2018-09-28T16:41:52.629Z,3.03
2018-09-28T16:44:21.943Z,3.13
2018-09-28T16:46:50.291Z,2.90
2018-09-28T16:49:18.588Z,3.23
2018-09-28T16:51:47.595Z,3.33
2018-09-28T16:54:16.001Z,3.67
2018-09-28T16:56:44.272Z,3.57
2018-09-28T16:59:12.536Z,3.43
2018-09-28T17:01:40.885Z,3.00
2018-09-28T17:04:09.152Z,3.20
2018-09-28T17:06:38.922Z,3.47
2018-09-28T17:09:07.910Z,3.07
2018-09-28T17:11:37.202Z,3.60
2018-09-28T17:14:05.659Z,3.30
2018-09-28T17:16:33.936Z,3.37
2018-09-28T17:19:02.349Z,3.37
2018-09-28T17:21:30.667Z,3.23
2018-09-28T17:23:58.976Z,3.27
2018-09-28T17:26:27.298Z,3.00
2018-09-28T17:28:55.594Z,3.03
2018-09-28T17:31:24.033Z,2.70
2018-09-28T17:33:52.348Z,2.20
2018-09-28T17:36:20.673Z,2.87
2018-09-28T17:38:49.034Z,2.70
2018-09-28T17:41:17.364Z,2.50
2018-09-28T17:43:45.639Z,2.50
2018-09-28T17:46:13.978Z,2.20
2018-09-28T17:48:42.285Z,2.40
2018-09-28T17:51:10.830Z,2.30
2018-09-28T17:53:39.140Z,2.20
2018-09-28T17:56:07.477Z,2.03
2018-09-28T17:58:35.837Z,2.10
2018-09-28T18:01:04.792Z,2.03
2018-09-28T18:03:33.112Z,1.90
2018-09-28T18:06:01.456Z,1.83
2018-09-28T18:08:29.757Z,1.80
2018-09-28T18:10:58.166Z,1.90
2018-09-28T18:13:26.544Z,2.07
2018-09-28T18:15:54.955Z,1.80
2018-09-28T18:18:23.376Z,1.80
2018-09-28T18:20:52.512Z,1.70
2018-09-28T18:23:21.790Z,1.80
2018-09-28T18:25:50.176Z,1.70
2018-09-28T18:28:18.625Z,1.70
2018-09-28T18:30:47.171Z,1.60
2018-09-28T18:33:15.585Z,1.70
2018-09-28T18:35:43.979Z,1.60
2018-09-28T18:38:12.379Z,1.50
2018-09-28T18:40:40.782Z,1.83
2018-09-28T18:43:09.189Z,2.00
2018-09-28T18:45:37.796Z,1.50
2018-09-28T18:48:06.887Z,1.50
2018-09-28T18:50:35.553Z,1.63
2018-09-28T18:53:04.475Z,1.30
2018-09-28T18:55:32.885Z,1.50
2018-09-28T18:58:01.305Z,1.67
2018-09-28T19:00:29.760Z,1.50
2018-09-28T19:02:58.218Z,1.80
2018-09-28T19:05:26.649Z,1.60
2018-09-28T19:07:55.051Z,1.87
2018-09-28T19:10:23.456Z,1.40
2018-09-28T19:12:51.931Z,1.50
2018-09-28T19:15:20.375Z,1.80
2018-09-28T19:17:48.749Z,1.50
2018-09-28T19:20:17.129Z,1.40
2018-09-28T19:22:45.512Z,1.43
2018-09-28T19:25:13.915Z,1.40
2018-09-28T19:27:42.409Z,1.37
2018-09-28T19:30:11.479Z,1.60
2018-09-28T19:32:39.876Z,1.40
2018-09-28T19:35:08.257Z,1.47
2018-09-28T19:37:36.924Z,1.20
2018-09-28T19:40:05.304Z,1.30
2018-09-28T19:42:33.724Z,1.70
2018-09-28T19:45:02.120Z,1.30
2018-09-28T19:47:30.544Z,1.53
2018-09-28T19:49:59.068Z,1.30
2018-09-28T19:52:29.363Z,1.27
2018-09-28T19:54:57.772Z,1.40
2018-09-28T19:57:26.844Z,1.33
2018-09-28T19:59:55.289Z,1.20
2018-09-28T20:02:24.455Z,1.60
2018-09-28T20:04:53.272Z,1.40
2018-09-28T20:07:21.815Z,1.40
2018-09-28T20:09:50.230Z,1.33
2018-09-28T20:12:18.639Z,1.53
2018-09-28T20:14:47.070Z,1.10
2018-09-28T20:17:15.542Z,1.30
2018-09-28T20:19:43.962Z,1.40
2018-09-28T20:22:14.224Z,1.57
2018-09-28T20:24:42.595Z,1.43
2018-09-28T20:27:11.526Z,1.40
2018-09-28T20:29:39.896Z,1.43
2018-09-28T20:32:08.844Z,1.10
2018-09-28T20:34:37.145Z,1.10
2018-09-28T20:37:05.526Z,1.30
2018-09-28T20:39:33.866Z,1.40
2018-09-28T20:42:02.218Z,1.53
2018-09-28T20:44:30.530Z,1.53
2018-09-28T20:47:00.062Z,1.37
2018-09-28T20:49:28.503Z,1.73
2018-09-28T20:51:58.318Z,1.50
2018-09-28T20:54:26.652Z,1.40
2018-09-28T20:56:54.970Z,1.37
2018-09-28T20:59:23.260Z,1.70
2018-09-28T21:01:52.488Z,1.20
2018-09-28T21:04:20.810Z,1.40
2018-09-28T21:06:49.099Z,1.43
2018-09-28T21:09:17.389Z,1.63
2018-09-28T21:11:45.712Z,1.97
2018-09-28T21:14:14.026Z,1.40
2018-09-28T21:16:42.336Z,1.60
2018-09-28T21:19:10.717Z,1.60
2018-09-28T21:21:39.606Z,1.60
2018-09-28T21:24:08.160Z,1.43
2018-09-28T21:26:37.024Z,1.40
2018-09-28T21:29:05.709Z,1.53
2018-09-28T21:31:33.908Z,1.40
2018-09-28T21:34:02.262Z,1.20
2018-09-28T21:36:30.548Z,1.30
2018-09-28T21:38:58.832Z,1.23
2018-09-28T21:41:27.146Z,1.63
2018-09-28T21:43:55.432Z,1.47
2018-09-28T21:46:23.736Z,3.07
2018-09-28T21:48:52.023Z,1.60
2018-09-28T21:51:20.313Z,1.60
2018-09-28T21:53:48.619Z,1.63
2018-09-28T21:56:16.899Z,1.40
2018-09-28T21:58:45.185Z,1.50
2018-09-28T22:01:17.389Z,1.50
2018-09-28T22:03:46.693Z,1.40
2018-09-28T22:06:15.005Z,1.30
2018-09-28T22:08:43.344Z,1.40
2018-09-28T22:11:11.637Z,1.40
2018-09-28T22:13:39.933Z,1.77
2018-09-28T22:16:08.384Z,1.83
2018-09-28T22:18:36.769Z,1.60
2018-09-28T22:21:05.041Z,1.40
2018-09-28T22:23:33.357Z,1.50
2018-09-28T22:26:01.665Z,1.40
2018-09-28T22:28:29.920Z,1.40
2018-09-28T22:30:58.388Z,1.77
2018-09-28T22:33:26.885Z,1.50
2018-09-28T22:35:55.161Z,1.50
2018-09-28T22:38:23.440Z,1.53
2018-09-28T22:40:51.736Z,1.53
2018-09-28T22:43:20.033Z,2.53
2018-09-28T22:45:48.348Z,1.20
2018-09-28T22:48:16.641Z,2.67
2018-09-28T22:50:45.145Z,1.60
2018-09-28T22:53:13.555Z,1.80
2018-09-28T22:55:42.048Z,2.13
2018-09-28T22:58:10.317Z,1.80
2018-09-28T23:00:38.600Z,1.70
2018-09-28T23:03:07.042Z,2.17
2018-09-28T23:05:35.377Z,1.70
2018-09-28T23:08:03.636Z,2.00
2018-09-28T23:10:31.971Z,1.17
2018-09-28T23:13:00.200Z,1.40
2018-09-28T23:15:28.491Z,1.50
2018-09-28T23:17:56.761Z,1.57
2018-09-28T23:20:25.085Z,1.60
2018-09-28T23:22:54.683Z,2.00
2018-09-28T23:25:22.967Z,1.70
2018-09-28T23:27:51.241Z,1.30
2018-09-28T23:30:20.349Z,1.70
2018-09-28T23:32:49.185Z,1.60
2018-09-28T23:35:17.461Z,1.40
2018-09-28T23:37:45.741Z,1.80
2018-09-28T23:40:14.039Z,1.60
2018-09-28T23:42:42.341Z,1.70
2018-09-28T23:45:10.621Z,2.00
2018-09-28T23:47:38.933Z,2.07
2018-09-28T23:50:07.176Z,1.70
2018-09-28T23:52:35.438Z,1.60
2018-09-28T23:55:03.805Z,2.03
2018-09-28T23:57:32.081Z,1.73
